TimeMST,TemperatureF,Dew PointF,Humidity,Sea Level PressureIn,VisibilityMPH,Wind Direction,Wind SpeedMPH,Gust SpeedMPH,PrecipitationIn,Events,Conditions,WindDirDegrees,DateUTC
12:53 AM,34.0,33.1,96,29.63,10.0,Calm,Calm,-,N/A,,Overcast,0,2013-03-09 07:53:00
1:53 AM,36.0,30.9,82,29.60,10.0,East,6.9,-,N/A,,Overcast,90,2013-03-09 08:53:00
2:53 AM,34.0,30.9,89,29.59,10.0,WSW,4.6,-,N/A,,Overcast,240,2013-03-09 09:53:00
3:53 AM,33.1,32.0,96,29.60,10.0,West,4.6,-,N/A,,Overcast,260,2013-03-09 10:53:00
4:53 AM,34.0,32.0,92,29.62,10.0,East,3.5,-,N/A,,Overcast,100,2013-03-09 11:53:00
5:53 AM,34.0,27.0,75,29.66,10.0,SE,11.5,-,N/A,,Overcast,140,2013-03-09 12:53:00
6:53 AM,32.0,27.0,82,29.71,10.0,SE,10.4,-,N/A,,Overcast,130,2013-03-09 13:53:00
7:53 AM,32.0,26.1,79,29.74,10.0,SE,13.8,-,N/A,,Overcast,140,2013-03-09 14:53:00
8:53 AM,32.0,26.1,79,29.77,10.0,SE,11.5,-,N/A,,Overcast,130,2013-03-09 15:53:00
9:53 AM,34.0,24.1,67,29.78,10.0,ESE,6.9,-,N/A,,Overcast,110,2013-03-09 16:53:00
10:53 AM,35.1,23.0,61,29.79,10.0,East,3.5,-,N/A,,Overcast,80,2013-03-09 17:53:00
11:53 AM,32.0,28.0,85,29.82,2.5,ENE,8.1,-,0.00,Snow,Light Snow,70,2013-03-09 18:53:00
12:08 PM,33.8,28.4,81,29.84,2.0,East,5.8,-,0.00,Snow,Light Snow,100,2013-03-09 19:08:00
12:40 PM,33.8,28.4,81,29.84,4.0,East,4.6,-,0.00,Snow,Light Snow,80,2013-03-09 19:40:00
12:51 PM,33.8,28.4,81,29.84,4.0,ENE,4.6,-,0.00,Snow,Light Snow,70,2013-03-09 19:51:00
12:53 PM,34.0,30.0,85,29.82,4.0,Variable,4.6,-,0.00,Snow,Light Snow,0,2013-03-09 19:53:00
1:02 PM,33.8,30.2,87,29.84,4.0,East,4.6,-,0.00,Snow,Light Snow,90,2013-03-09 20:02:00
1:16 PM,33.8,30.2,87,29.84,2.0,Calm,Calm,-,0.00,Snow,Light Snow,0,2013-03-09 20:16:00
1:39 PM,33.8,30.2,87,29.84,3.0,Calm,Calm,-,0.00,Snow,Light Snow,0,2013-03-09 20:39:00
1:53 PM,34.0,30.0,85,29.81,8.0,Calm,Calm,-,0.00,,Overcast,0,2013-03-09 20:53:00
2:15 PM,35.6,28.4,75,29.84,10.0,Calm,Calm,-,N/A,,Overcast,0,2013-03-09 21:15:00
2:53 PM,36.0,28.9,76,29.83,9.0,Calm,Calm,-,0.00,,Overcast,0,2013-03-09 21:53:00
3:23 PM,35.6,30.2,81,29.87,4.0,NW,4.6,-,0.00,Snow,Light Snow,320,2013-03-09 22:23:00
3:31 PM,33.8,30.2,87,29.87,1.8,NW,3.5,-,0.00,Snow,Light Snow,310,2013-03-09 22:31:00
3:39 PM,33.8,30.2,87,29.88,1.2,NW,6.9,-,0.00,Snow,Light Snow,320,2013-03-09 22:39:00
3:46 PM,33.8,32.0,93,29.88,1.2,NW,11.5,-,0.00,Snow,Light Snow,320,2013-03-09 22:46:00
3:53 PM,33.1,33.1,100,29.87,1.5,NW,9.2,-,0.00,Snow,Light Snow,310,2013-03-09 22:53:00
3:59 PM,33.8,32.0,93,29.88,1.0,NW,8.1,-,0.00,Snow,Light Snow,320,2013-03-09 22:59:00
4:12 PM,33.8,32.0,93,29.89,1.8,NNW,5.8,-,0.01,Snow,Light Snow,330,2013-03-09 23:12:00
4:14 PM,33.8,32.0,93,29.89,2.0,NNW,5.8,-,0.01,Snow,Light Snow,330,2013-03-09 23:14:00
4:22 PM,33.8,32.0,93,29.89,5.0,NW,4.6,-,0.01,Snow,Light Snow,320,2013-03-09 23:22:00
4:30 PM,33.8,32.0,93,29.89,7.0,WNW,3.5,-,0.01,Snow,Light Snow,300,2013-03-09 23:30:00
4:38 PM,33.8,32.0,93,29.90,5.0,WNW,4.6,-,0.01,Snow,Light Snow,290,2013-03-09 23:38:00
4:53 PM,34.0,32.0,92,29.88,3.0,Calm,Calm,-,0.01,Snow,Light Snow,0,2013-03-09 23:53:00
5:00 PM,33.8,32.0,93,29.91,3.0,Calm,Calm,-,0.00,Snow,Light Snow,0,2013-03-10 00:00:00
5:23 PM,35.6,32.0,87,29.92,10.0,Calm,Calm,-,0.00,,Overcast,0,2013-03-10 00:23:00
5:53 PM,35.1,32.0,89,29.91,10.0,Calm,Calm,-,0.00,,Overcast,0,2013-03-10 00:53:00
6:53 PM,35.1,30.0,82,29.94,10.0,WSW,8.1,-,N/A,,Overcast,240,2013-03-10 01:53:00
7:53 PM,35.1,30.0,82,29.97,10.0,NW,5.8,-,N/A,,Overcast,310,2013-03-10 02:53:00
8:53 PM,34.0,28.9,82,30.01,10.0,NW,4.6,-,N/A,,Partly Cloudy,310,2013-03-10 03:53:00
9:53 PM,32.0,26.1,79,30.04,10.0,NNW,10.4,-,N/A,,Clear,340,2013-03-10 04:53:00
10:53 PM,30.9,24.1,76,30.06,10.0,NNW,6.9,-,N/A,,Partly Cloudy,340,2013-03-10 05:53:00
11:11 PM,30.2,24.8,80,30.07,10.0,North,9.2,-,N/A,,Mostly Cloudy,350,2013-03-10 06:11:00
11:31 PM,30.2,24.8,80,30.07,10.0,North,5.8,-,N/A,,Mostly Cloudy,350,2013-03-10 06:31:00
11:53 PM,30.0,24.1,79,30.09,10.0,North,3.5,-,N/A,,Mostly Cloudy,10,2013-03-10 06:53:00